createdAt,value
2022-12-18T00:07:16.053Z,100
2022-12-18T00:17:16.985Z,100
2022-12-18T00:27:17.117Z,100
2022-12-18T00:47:18.171Z,100
2022-12-18T01:17:19.504Z,100
2022-12-18T01:27:19.666Z,100
2022-12-18T01:37:20.294Z,100
2022-12-18T01:47:20.810Z,100
2022-12-18T01:57:21.235Z,100
2022-12-18T02:07:21.904Z,100
2022-12-18T02:17:22.940Z,100
2022-12-18T02:27:23.146Z,100
2022-12-18T02:37:23.811Z,100
2022-12-18T02:57:24.960Z,100
2022-12-18T03:07:25.085Z,100
2022-12-18T03:17:25.557Z,100
2022-12-18T03:27:26.042Z,100
2022-12-18T03:37:26.661Z,100
2022-12-18T03:47:27.639Z,100
2022-12-18T03:57:28.334Z,100
2022-12-18T04:07:28.729Z,100
2022-12-18T04:17:29.204Z,100
2022-12-18T04:27:29.762Z,100
2022-12-18T04:37:30.667Z,100
2022-12-18T04:47:31.395Z,100
2022-12-18T04:57:32.241Z,100
2022-12-18T05:07:32.769Z,100
2022-12-18T05:17:33.284Z,100
2022-12-18T05:27:34.162Z,100
2022-12-18T05:47:34.725Z,100
2022-12-18T05:57:34.896Z,100
2022-12-18T06:07:35.363Z,100
2022-12-18T06:17:36.171Z,100
2022-12-18T06:27:37.137Z,100
2022-12-18T06:37:37.493Z,100
2022-12-18T06:57:38.893Z,100
2022-12-18T07:07:39.637Z,100
2022-12-18T07:17:40.619Z,100
2022-12-18T07:27:41.131Z,100
2022-12-18T07:47:42.647Z,100
2022-12-18T07:57:51.938Z,100
2022-12-18T08:07:43.821Z,100
2022-12-18T08:17:44.695Z,100
2022-12-18T08:27:45.238Z,100
2022-12-18T08:37:45.929Z,100
2022-12-18T08:47:46.854Z,100
2022-12-18T08:57:47.914Z,100
2022-12-18T09:07:48.322Z,100
2022-12-18T09:17:48.440Z,100
2022-12-18T09:27:48.738Z,100
2022-12-18T09:37:49.369Z,100
2022-12-18T09:47:50.146Z,100
2022-12-18T09:57:51.095Z,100
2022-12-18T10:07:51.395Z,100
2022-12-18T10:17:51.811Z,100
2022-12-18T10:37:53.234Z,100
2022-12-18T10:57:53.963Z,100
2022-12-18T11:07:54.592Z,100
2022-12-18T11:17:54.749Z,100
2022-12-18T11:27:55.244Z,100
2022-12-18T11:37:55.795Z,100
2022-12-18T11:47:56.867Z,100
2022-12-18T11:57:57.708Z,100
2022-12-18T12:07:58.652Z,100
2022-12-18T12:17:59.004Z,100
2022-12-18T12:27:59.824Z,100
2022-12-18T12:38:00.266Z,100
2022-12-18T12:48:00.702Z,100
2022-12-18T12:58:01.660Z,100
2022-12-18T13:08:02.420Z,100
2022-12-18T13:18:02.595Z,100
2022-12-18T13:28:03.274Z,100
2022-12-18T13:38:03.995Z,100
2022-12-18T13:48:04.853Z,100
2022-12-18T13:58:05.491Z,100
2022-12-18T14:08:05.624Z,100
2022-12-18T14:18:05.792Z,100
2022-12-18T14:28:06.625Z,100
2022-12-18T14:38:07.043Z,100
2022-12-18T14:48:07.793Z,100
2022-12-18T14:58:07.919Z,100
2022-12-18T15:08:08.525Z,100
2022-12-18T15:28:09.779Z,100
2022-12-18T15:58:11.123Z,100
2022-12-18T16:08:11.824Z,100
2022-12-18T16:18:12.808Z,100
2022-12-18T16:28:13.611Z,100
2022-12-18T16:38:14.701Z,100
2022-12-18T16:58:15.539Z,100
2022-12-18T17:08:16.073Z,100
2022-12-18T17:18:16.827Z,100
2022-12-18T17:28:17.529Z,100
2022-12-18T17:38:18.059Z,100
2022-12-18T17:48:18.841Z,100
2022-12-18T17:58:19.867Z,100
2022-12-18T18:28:21.765Z,100
2022-12-18T18:48:22.273Z,100
2022-12-18T18:58:22.586Z,100
2022-12-18T19:08:22.767Z,100
2022-12-18T19:18:22.913Z,100
2022-12-18T19:28:23.283Z,99
2022-12-18T19:38:23.748Z,98
2022-12-18T19:48:24.092Z,97
2022-12-18T19:58:24.998Z,96
2022-12-18T20:18:26.598Z,92
2022-12-18T20:28:26.783Z,92
2022-12-18T20:38:27.133Z,92
2022-12-18T20:58:28.625Z,90
2022-12-18T21:08:29.203Z,89
2022-12-18T21:18:30.192Z,89
2022-12-18T21:28:31.266Z,90
2022-12-18T21:38:32.246Z,90
2022-12-18T21:48:32.893Z,91
2022-12-18T21:58:33.472Z,92
2022-12-18T22:08:33.925Z,93
2022-12-18T22:18:34.963Z,95
2022-12-18T22:28:36.017Z,97
2022-12-18T22:38:36.194Z,97
2022-12-18T22:48:36.250Z,98
2022-12-18T23:18:37.629Z,100
2022-12-18T23:28:37.935Z,100
2022-12-18T23:38:38.256Z,100
2022-12-18T23:48:39.110Z,100
2022-12-18T23:58:39.279Z,100
